Simenta De Carvalho — CSYU3 — position and weather

sailwx.info

Track history (hours):
 
Tides and Currents Weather Stations Pressure Air Temp Water Temp Dewpoint Dewpoint Depression Visibility Wind Speed Wind Dir Waves Ship Positions

Simenta De Carvalho

Last reported at 2017-Oct-18 12:28 UTC. Time now 2017-Oct-18 12:57 UTC.
Position N 37°57' W 008°52'.

Length 12 m.

Type: Pilot. MMSI: 263673856.

Date/timePositionNaut miles runAvg speedWind from/ knotsBaromVisibWave heightAir tempDewpointWater temp
2017-Oct-18 12:28N 37°57' W 008°52'2 4.7
2017-Oct-18 12:00N 37°55' W 008°53'2 0.4
2017-Oct-18 05:54N 37°56' W 008°51'2 4.5
2017-Oct-18 05:30N 37°54' W 008°50'2 3.3
2017-Oct-18 05:00N 37°56' W 008°51'0 0.3
2017-Oct-18 04:30N 37°56' W 008°51'0 0.2
2017-Oct-18 03:06N 37°56' W 008°51'1 6.6
2017-Oct-18 03:00N 37°56' W 008°51'0 0.3
2017-Oct-18 02:29N 37°56' W 008°51'0 0.1
2017-Oct-18 02:00N 37°56' W 008°51'0 1.0
2017-Oct-18 01:30N 37°56' W 008°51'0 0.0
2017-Oct-18 01:00N 37°56' W 008°51'0 0.0
2017-Oct-18 00:30N 37°56' W 008°51'0 0.0
2017-Oct-18 00:00N 37°56' W 008°51'0 0.6
2017-Oct-17 23:30N 37°56' W 008°51'0 0.1
2017-Oct-17 21:49N 37°56' W 008°51'2 5.3
2017-Oct-17 21:30N 37°57' W 008°53'1 0.8
2017-Oct-17 20:10N 37°57' W 008°52'1 6.4
2017-Oct-17 20:00N 37°57' W 008°53'0 0.2
2017-Oct-17 19:30N 37°57' W 008°53'1 1.2
2017-Oct-17 18:39N 37°57' W 008°52'210.3
2017-Oct-17 18:30N 37°55' W 008°52'2 3.1
2017-Oct-17 17:58N 37°57' W 008°52'0 0.0
2017-Oct-17 17:30N 37°57' W 008°52'1 1.6
2017-Oct-17 17:00N 37°56' W 008°51'0 0.0
2017-Oct-17 08:17N 37°56' W 008°51'2 8.0
2017-Oct-17 08:00N 37°55' W 008°53'2 3.6
2017-Oct-17 07:28N 37°57' W 008°53'1 1.1
2017-Oct-17 06:27N 37°57' W 008°52'2 5.0
2017-Oct-17 06:00N 37°55' W 008°51'2 0.3
2017-Oct-17 00:50N 37°56' W 008°51'1 2.4
2017-Oct-17 00:30N 37°55' W 008°51'1 1.0
2017-Oct-17 00:00N 37°56' W 008°51'0 0.4
2017-Oct-16 23:30N 37°56' W 008°51'0 0.8
2017-Oct-16 22:59N 37°56' W 008°51'2 4.0
2017-Oct-16 22:30N 37°54' W 008°50'2 0.8
2017-Oct-16 19:58N 37°56' W 008°51'1 1.7
2017-Oct-16 19:31N 37°55' W 008°51'1 0.7
2017-Oct-16 18:29N 37°56' W 008°51'2 3.5
2017-Oct-16 18:00N 37°56' W 008°53'1 1.8
2017-Oct-16 17:30N 37°57' W 008°53'2 3.2
2017-Oct-16 16:59N 37°56' W 008°51'0 0.2
2017-Oct-16 16:29N 37°56' W 008°51'1 2.2
2017-Oct-16 16:00N 37°55' W 008°51'1 2.0
2017-Oct-16 15:30N 37°56' W 008°51'0 0.9
2017-Oct-16 15:00N 37°56' W 008°51'0 0.1
2017-Oct-16 10:50N 37°56' W 008°51'1 3.7
2017-Oct-16 10:28N 37°57' W 008°52'3 5.9
2017-Oct-16 10:00N 37°55' W 008°51'1 2.7
2017-Oct-16 09:30N 37°56' W 008°51'0 0.0
2017-Oct-16 03:29N 37°56' W 008°51'0 0.5
2017-Oct-16 03:00N 37°56' W 008°51'0 0.2
2017-Oct-16 01:48N 37°56' W 008°51'2 8.1
2017-Oct-16 01:30N 37°55' W 008°53'2 4.3
2017-Oct-16 01:00N 37°57' W 008°53'2 4.4
2017-Oct-16 00:30N 37°56' W 008°51'2 4.4
2017-Oct-16 00:00N 37°57' W 008°53'2 0.4
2017-Oct-15 19:20N 37°56' W 008°51'0 0.0
2017-Oct-15 17:28N 37°56' W 008°51'1 2.3
2017-Oct-15 17:00N 37°55' W 008°51'1 1.6
2017-Oct-15 16:30N 37°56' W 008°51'0 0.3
2017-Oct-15 16:00N 37°56' W 008°51'0 0.0
2017-Oct-15 11:55N 37°56' W 008°51'1 2.2
2017-Oct-15 11:30N 37°55' W 008°50'1 1.5
2017-Oct-15 11:00N 37°56' W 008°51'0 0.3
2017-Oct-15 10:29N 37°56' W 008°51'2 4.2
2017-Oct-15 10:00N 37°57' W 008°53'0 0.3
2017-Oct-15 09:30N 37°57' W 008°53'1 2.1
2017-Oct-15 08:58N 37°57' W 008°52'0 0.0
2017-Oct-15 08:28N 37°57' W 008°52'2 5.2
2017-Oct-15 08:00N 37°55' W 008°51'2 1.4
2017-Oct-15 06:15N 37°57' W 008°52'1 6.2
2017-Oct-15 06:00N 37°55' W 008°53'1 0.9
2017-Oct-15 04:20N 37°57' W 008°52'3 8.2
2017-Oct-15 04:00N 37°54' W 008°51'1 2.7
2017-Oct-15 03:30N 37°56' W 008°51'0 0.6
2017-Oct-15 03:00N 37°56' W 008°51'0 0.2
2017-Oct-15 02:30N 37°56' W 008°51'1 2.6
2017-Oct-15 02:00N 37°55' W 008°50'1 1.3
2017-Oct-15 01:30N 37°55' W 008°51'2 4.5
2017-Oct-15 01:01N 37°57' W 008°53'0 0.2
2017-Oct-15 00:30N 37°57' W 008°53'1 0.2
2017-Oct-14 19:34N 37°57' W 008°52'0 4.1
2017-Oct-14 19:30N 37°57' W 008°52'0 1.0
2017-Oct-14 19:00N 37°56' W 008°51'0 0.1
2017-Oct-14 18:30N 37°56' W 008°51'1 1.0
2017-Oct-14 18:00N 37°56' W 008°51'0 0.3
2017-Oct-14 17:30N 37°56' W 008°51'0 0.3
2017-Oct-14 15:59N 37°56' W 008°51'0 0.7
2017-Oct-14 15:28N 37°56' W 008°51'0 0.1
2017-Oct-14 10:10N 37°56' W 008°51'1 5.8
2017-Oct-14 10:00N 37°55' W 008°51'2 4.0
2017-Oct-14 09:30N 37°57' W 008°53'2 4.4
2017-Oct-14 09:00N 37°55' W 008°51'1 0.3
2017-Oct-14 06:31N 37°56' W 008°51'0 0.4
2017-Oct-14 06:30N 37°56' W 008°51'2 3.7
2017-Oct-14 05:59N 37°57' W 008°53'3 6.9
2017-Oct-14 05:30N 37°54' W 008°50'2 0.4
2017-Oct-14 01:09N 37°56' W 008°51'211.6
2017-Oct-14 01:00N 37°55' W 008°50'1 2.0
2017-Oct-14 00:30N 37°56' W 008°50'1 0.4
2017-Oct-13 22:28N 37°56' W 008°51'2 3.8
2017-Oct-13 22:00N 37°57' W 008°53'0 0.4
2017-Oct-13 21:29N 37°57' W 008°53'2 0.3
2017-Oct-13 14:42N 37°56' W 008°51'1 5.1
2017-Oct-13 14:30N 37°55' W 008°51'2 4.9
2017-Oct-13 14:00N 37°57' W 008°53'0 0.1
2017-Oct-13 13:30N 37°57' W 008°53'1 0.5
2017-Oct-13 11:11N 37°57' W 008°52'211.8
2017-Oct-13 11:00N 37°55' W 008°53'2 1.4
2017-Oct-13 09:29N 37°57' W 008°52'2 4.9
2017-Oct-13 09:00N 37°55' W 008°54'2 0.8
2017-Oct-13 06:05N 37°56' W 008°51'0 4.4
2017-Oct-13 06:00N 37°56' W 008°51'0 0.2
2017-Oct-13 05:30N 37°56' W 008°51'1 0.2
2017-Oct-12 23:32N 37°57' W 008°52'0 2.4
2017-Oct-12 23:30N 37°57' W 008°52'1 2.4
2017-Oct-12 22:59N 37°57' W 008°53'1 0.6
2017-Oct-12 21:04N 37°57' W 008°52'0 5.9
2017-Oct-12 21:00N 37°57' W 008°52'1 2.5
2017-Oct-12 20:30N 37°56' W 008°51'0 0.1
2017-Oct-12 20:00N 37°56' W 008°51'0 0.6
2017-Oct-12 19:17N 37°56' W 008°51'1 3.2
2017-Oct-12 19:00N 37°55' W 008°51'1 1.8
2017-Oct-12 18:30N 37°56' W 008°51'1 1.7
2017-Oct-12 18:00N 37°55' W 008°51'2 0.5
2017-Oct-12 14:42N 37°57' W 008°52'1 5.3
2017-Oct-12 14:30N 37°57' W 008°53'2 0.8
2017-Oct-12 12:20N 37°56' W 008°51'1 2.9
2017-Oct-12 12:00N 37°55' W 008°51'2 4.4
2017-Oct-12 11:28N 37°57' W 008°53'0 0.3
2017-Oct-12 11:00N 37°57' W 008°53'2 4.2
2017-Oct-12 10:29N 37°56' W 008°51'1 1.2
2017-Oct-12 10:00N 37°56' W 008°51'2 3.5
2017-Oct-12 09:30N 37°57' W 008°53'1 1.1
2017-Oct-12 09:00N 37°57' W 008°52'1 1.6
2017-Oct-12 08:30N 37°57' W 008°53'2 1.0
2017-Oct-12 06:34N 37°56' W 008°51'0 6.3
2017-Oct-12 06:30N 37°56' W 008°51'2 4.2
2017-Oct-12 06:00N 37°57' W 008°53'2 3.5
2017-Oct-12 05:28N 37°56' W 008°51'0 0.4
2017-Oct-12 05:00N 37°56' W 008°51'0 0.3
2017-Oct-12 04:29N 37°56' W 008°51'0 0.5
2017-Oct-12 03:59N 37°56' W 008°51'3 5.6
2017-Oct-12 03:30N 37°54' W 008°50'2 4.6
2017-Oct-12 03:00N 37°56' W 008°51'0 0.9
2017-Oct-12 02:29N 37°56' W 008°51'0 0.0
2017-Oct-12 01:59N 37°56' W 008°51'2 3.7
2017-Oct-12 01:31N 37°55' W 008°50'2 3.0
2017-Oct-12 00:59N 37°56' W 008°51'0 0.6
2017-Oct-12 00:28N 37°56' W 008°51'0 0.0
2017-Oct-11 23:55N 37°56' W 008°51'0 0.1
2017-Oct-11 18:10N 37°56' W 008°51'211.7
2017-Oct-11 18:00N 37°54' W 008°51'1 3.0
2017-Oct-11 17:30N 37°56' W 008°51'0 0.1
2017-Oct-11 17:00N 37°56' W 008°51'1 0.1
2017-Oct-10 22:46N 37°57' W 008°52'2 6.3
2017-Oct-10 22:30N 37°56' W 008°53'2 0.8
2017-Oct-10 20:19N 37°56' W 008°51'0 0.7
2017-Oct-10 20:00N 37°56' W 008°51'0 0.1
2017-Oct-10 17:30N 37°56' W 008°51'0 0.7
2017-Oct-10 17:00N 37°56' W 008°51'0 0.1
2017-Oct-10 16:29N 37°56' W 008°51'1 0.5
2017-Oct-10 15:18N 37°57' W 008°52'1 3.5
2017-Oct-10 15:00N 37°56' W 008°51'1 1.3
2017-Oct-10 14:00N 37°56' W 008°53'1 2.4
2017-Oct-10 13:28N 37°56' W 008°51'0 0.0
2017-Oct-10 13:00N 37°56' W 008°51'0 0.6
2017-Oct-10 12:30N 37°56' W 008°51'0 0.3
2017-Oct-10 11:26N 37°56' W 008°51'0 0.6
2017-Oct-10 11:00N 37°56' W 008°51'0 0.0
2017-Oct-10 01:37N 37°56' W 008°51'1 5.6
2017-Oct-10 01:30N 37°56' W 008°51'1 1.3
2017-Oct-10 01:00N 37°56' W 008°51'0 0.0
2017-Oct-10 00:30N 37°56' W 008°51'0 0.8
2017-Oct-09 23:58N 37°56' W 008°51'1 2.5
2017-Oct-09 23:30N 37°56' W 008°52'0 0.3
2017-Oct-09 21:54N 37°57' W 008°52'1 2.5
2017-Oct-09 21:28N 37°57' W 008°53'2 3.7
2017-Oct-09 21:00N 37°56' W 008°51'0 0.0
2017-Oct-09 16:54N 37°56' W 008°51'0 0.8
2017-Oct-09 16:30N 37°56' W 008°51'1 1.0
2017-Oct-09 16:00N 37°56' W 008°51'1 1.8
2017-Oct-09 15:30N 37°55' W 008°51'0 0.7
2017-Oct-09 15:00N 37°56' W 008°51'1 1.3
2017-Oct-09 14:29N 37°56' W 008°51'2 3.6
2017-Oct-09 14:00N 37°55' W 008°52'2 4.0
2017-Oct-09 13:30N 37°57' W 008°52'0 0.9
2017-Oct-09 12:59N 37°57' W 008°52'2 4.9
2017-Oct-09 12:30N 37°55' W 008°51'3 5.2
2017-Oct-09 12:00N 37°57' W 008°53'2 0.3
2017-Oct-09 04:48N 37°56' W 008°51'0 1.2
2017-Oct-09 04:28N 37°56' W 008°51'0 0.1
2017-Oct-09 04:00N 37°56' W 008°51'1 2.4
2017-Oct-09 03:29N 37°57' W 008°52'0 0.0
2017-Oct-09 03:00N 37°57' W 008°52'1 2.0
2017-Oct-09 02:30N 37°56' W 008°52'1 0.1
2017-Oct-08 21:46N 37°56' W 008°51'0 0.7
2017-Oct-08 21:30N 37°56' W 008°51'0 0.4
2017-Oct-08 21:00N 37°56' W 008°51'0 0.0
2017-Oct-08 18:07N 37°56' W 008°51'112.1
2017-Oct-08 18:00N 37°55' W 008°51'2 3.2
2017-Oct-08 17:30N 37°56' W 008°53'1 2.5
2017-Oct-08 17:00N 37°57' W 008°53'1 2.3
2017-Oct-08 16:28N 37°57' W 008°52'1 2.6
2017-Oct-08 15:59N 37°56' W 008°51'0 0.6
2017-Oct-08 15:19N 37°56' W 008°51'3 8.1
2017-Oct-08 15:00N 37°54' W 008°51'  
Track history (hours):
 
Tides and Currents Weather Stations Pressure Air Temp Water Temp Dewpoint Dewpoint Depression Visibility Wind Speed Wind Dir Waves Ship Positions

Simenta De Carvalho

Last reported at 2017-Oct-18 12:28 UTC. Time now 2017-Oct-18 12:57 UTC.
Position N 37°57' W 008°52'.

Length 12 m.

Type: Pilot. MMSI: 263673856.

Date/timePositionNaut miles runAvg speedWind from/ knotsBaromVisibWave heightAir tempDewpointWater temp
2017-Oct-18 12:28N 37°57' W 008°52'2 4.7
2017-Oct-18 12:00N 37°55' W 008°53'2 0.4
2017-Oct-18 05:54N 37°56' W 008°51'2 4.5
2017-Oct-18 05:30N 37°54' W 008°50'2 3.3
2017-Oct-18 05:00N 37°56' W 008°51'0 0.3
2017-Oct-18 04:30N 37°56' W 008°51'0 0.2
2017-Oct-18 03:06N 37°56' W 008°51'1 6.6
2017-Oct-18 03:00N 37°56' W 008°51'0 0.3
2017-Oct-18 02:29N 37°56' W 008°51'0 0.1
2017-Oct-18 02:00N 37°56' W 008°51'0 1.0
2017-Oct-18 01:30N 37°56' W 008°51'0 0.0
2017-Oct-18 01:00N 37°56' W 008°51'0 0.0
2017-Oct-18 00:30N 37°56' W 008°51'0 0.0
2017-Oct-18 00:00N 37°56' W 008°51'0 0.6
2017-Oct-17 23:30N 37°56' W 008°51'0 0.1
2017-Oct-17 21:49N 37°56' W 008°51'2 5.3
2017-Oct-17 21:30N 37°57' W 008°53'1 0.8
2017-Oct-17 20:10N 37°57' W 008°52'1 6.4
2017-Oct-17 20:00N 37°57' W 008°53'0 0.2
2017-Oct-17 19:30N 37°57' W 008°53'1 1.2
2017-Oct-17 18:39N 37°57' W 008°52'210.3
2017-Oct-17 18:30N 37°55' W 008°52'2 3.1
2017-Oct-17 17:58N 37°57' W 008°52'0 0.0
2017-Oct-17 17:30N 37°57' W 008°52'1 1.6
2017-Oct-17 17:00N 37°56' W 008°51'0 0.0
2017-Oct-17 08:17N 37°56' W 008°51'2 8.0
2017-Oct-17 08:00N 37°55' W 008°53'2 3.6
2017-Oct-17 07:28N 37°57' W 008°53'1 1.1
2017-Oct-17 06:27N 37°57' W 008°52'2 5.0
2017-Oct-17 06:00N 37°55' W 008°51'2 0.3
2017-Oct-17 00:50N 37°56' W 008°51'1 2.4
2017-Oct-17 00:30N 37°55' W 008°51'1 1.0
2017-Oct-17 00:00N 37°56' W 008°51'0 0.4
2017-Oct-16 23:30N 37°56' W 008°51'0 0.8
2017-Oct-16 22:59N 37°56' W 008°51'2 4.0
2017-Oct-16 22:30N 37°54' W 008°50'2 0.8
2017-Oct-16 19:58N 37°56' W 008°51'1 1.7
2017-Oct-16 19:31N 37°55' W 008°51'1 0.7
2017-Oct-16 18:29N 37°56' W 008°51'2 3.5
2017-Oct-16 18:00N 37°56' W 008°53'1 1.8
2017-Oct-16 17:30N 37°57' W 008°53'2 3.2
2017-Oct-16 16:59N 37°56' W 008°51'0 0.2
2017-Oct-16 16:29N 37°56' W 008°51'1 2.2
2017-Oct-16 16:00N 37°55' W 008°51'1 2.0
2017-Oct-16 15:30N 37°56' W 008°51'0 0.9
2017-Oct-16 15:00N 37°56' W 008°51'0 0.1
2017-Oct-16 10:50N 37°56' W 008°51'1 3.7
2017-Oct-16 10:28N 37°57' W 008°52'3 5.9
2017-Oct-16 10:00N 37°55' W 008°51'1 2.7
2017-Oct-16 09:30N 37°56' W 008°51'0 0.0
2017-Oct-16 03:29N 37°56' W 008°51'0 0.5
2017-Oct-16 03:00N 37°56' W 008°51'0 0.2
2017-Oct-16 01:48N 37°56' W 008°51'2 8.1
2017-Oct-16 01:30N 37°55' W 008°53'2 4.3
2017-Oct-16 01:00N 37°57' W 008°53'2 4.4
2017-Oct-16 00:30N 37°56' W 008°51'2 4.4
2017-Oct-16 00:00N 37°57' W 008°53'2 0.4
2017-Oct-15 19:20N 37°56' W 008°51'0 0.0
2017-Oct-15 17:28N 37°56' W 008°51'1 2.3
2017-Oct-15 17:00N 37°55' W 008°51'1 1.6
2017-Oct-15 16:30N 37°56' W 008°51'0 0.3
2017-Oct-15 16:00N 37°56' W 008°51'0 0.0
2017-Oct-15 11:55N 37°56' W 008°51'1 2.2
2017-Oct-15 11:30N 37°55' W 008°50'1 1.5
2017-Oct-15 11:00N 37°56' W 008°51'0 0.3
2017-Oct-15 10:29N 37°56' W 008°51'2 4.2
2017-Oct-15 10:00N 37°57' W 008°53'0 0.3
2017-Oct-15 09:30N 37°57' W 008°53'1 2.1
2017-Oct-15 08:58N 37°57' W 008°52'0 0.0
2017-Oct-15 08:28N 37°57' W 008°52'2 5.2
2017-Oct-15 08:00N 37°55' W 008°51'2 1.4
2017-Oct-15 06:15N 37°57' W 008°52'1 6.2
2017-Oct-15 06:00N 37°55' W 008°53'1 0.9
2017-Oct-15 04:20N 37°57' W 008°52'3 8.2
2017-Oct-15 04:00N 37°54' W 008°51'1 2.7
2017-Oct-15 03:30N 37°56' W 008°51'0 0.6
2017-Oct-15 03:00N 37°56' W 008°51'0 0.2
2017-Oct-15 02:30N 37°56' W 008°51'1 2.6
2017-Oct-15 02:00N 37°55' W 008°50'1 1.3
2017-Oct-15 01:30N 37°55' W 008°51'2 4.5
2017-Oct-15 01:01N 37°57' W 008°53'0 0.2
2017-Oct-15 00:30N 37°57' W 008°53'1 0.2
2017-Oct-14 19:34N 37°57' W 008°52'0 4.1
2017-Oct-14 19:30N 37°57' W 008°52'0 1.0
2017-Oct-14 19:00N 37°56' W 008°51'0 0.1
2017-Oct-14 18:30N 37°56' W 008°51'1 1.0
2017-Oct-14 18:00N 37°56' W 008°51'0 0.3
2017-Oct-14 17:30N 37°56' W 008°51'0 0.3
2017-Oct-14 15:59N 37°56' W 008°51'0 0.7
2017-Oct-14 15:28N 37°56' W 008°51'0 0.1
2017-Oct-14 10:10N 37°56' W 008°51'1 5.8
2017-Oct-14 10:00N 37°55' W 008°51'2 4.0
2017-Oct-14 09:30N 37°57' W 008°53'2 4.4
2017-Oct-14 09:00N 37°55' W 008°51'1 0.3
2017-Oct-14 06:31N 37°56' W 008°51'0 0.4
2017-Oct-14 06:30N 37°56' W 008°51'2 3.7
2017-Oct-14 05:59N 37°57' W 008°53'3 6.9
2017-Oct-14 05:30N 37°54' W 008°50'2 0.4
2017-Oct-14 01:09N 37°56' W 008°51'211.6
2017-Oct-14 01:00N 37°55' W 008°50'1 2.0
2017-Oct-14 00:30N 37°56' W 008°50'1 0.4
2017-Oct-13 22:28N 37°56' W 008°51'2 3.8
2017-Oct-13 22:00N 37°57' W 008°53'0 0.4
2017-Oct-13 21:29N 37°57' W 008°53'2 0.3
2017-Oct-13 14:42N 37°56' W 008°51'1 5.1
2017-Oct-13 14:30N 37°55' W 008°51'2 4.9
2017-Oct-13 14:00N 37°57' W 008°53'0 0.1
2017-Oct-13 13:30N 37°57' W 008°53'1 0.5
2017-Oct-13 11:11N 37°57' W 008°52'211.8
2017-Oct-13 11:00N 37°55' W 008°53'2 1.4
2017-Oct-13 09:29N 37°57' W 008°52'2 4.9
2017-Oct-13 09:00N 37°55' W 008°54'2 0.8
2017-Oct-13 06:05N 37°56' W 008°51'0 4.4
2017-Oct-13 06:00N 37°56' W 008°51'0 0.2
2017-Oct-13 05:30N 37°56' W 008°51'1 0.2
2017-Oct-12 23:32N 37°57' W 008°52'0 2.4
2017-Oct-12 23:30N 37°57' W 008°52'1 2.4
2017-Oct-12 22:59N 37°57' W 008°53'1 0.6
2017-Oct-12 21:04N 37°57' W 008°52'0 5.9
2017-Oct-12 21:00N 37°57' W 008°52'1 2.5
2017-Oct-12 20:30N 37°56' W 008°51'0 0.1
2017-Oct-12 20:00N 37°56' W 008°51'0 0.6
2017-Oct-12 19:17N 37°56' W 008°51'1 3.2
2017-Oct-12 19:00N 37°55' W 008°51'1 1.8
2017-Oct-12 18:30N 37°56' W 008°51'1 1.7
2017-Oct-12 18:00N 37°55' W 008°51'2 0.5
2017-Oct-12 14:42N 37°57' W 008°52'1 5.3
2017-Oct-12 14:30N 37°57' W 008°53'2 0.8
2017-Oct-12 12:20N 37°56' W 008°51'1 2.9
2017-Oct-12 12:00N 37°55' W 008°51'2 4.4
2017-Oct-12 11:28N 37°57' W 008°53'0 0.3
2017-Oct-12 11:00N 37°57' W 008°53'2 4.2
2017-Oct-12 10:29N 37°56' W 008°51'1 1.2
2017-Oct-12 10:00N 37°56' W 008°51'2 3.5
2017-Oct-12 09:30N 37°57' W 008°53'1 1.1
2017-Oct-12 09:00N 37°57' W 008°52'1 1.6
2017-Oct-12 08:30N 37°57' W 008°53'2 1.0
2017-Oct-12 06:34N 37°56' W 008°51'0 6.3
2017-Oct-12 06:30N 37°56' W 008°51'2 4.2
2017-Oct-12 06:00N 37°57' W 008°53'2 3.5
2017-Oct-12 05:28N 37°56' W 008°51'0 0.4
2017-Oct-12 05:00N 37°56' W 008°51'0 0.3
2017-Oct-12 04:29N 37°56' W 008°51'0 0.5
2017-Oct-12 03:59N 37°56' W 008°51'3 5.6
2017-Oct-12 03:30N 37°54' W 008°50'2 4.6
2017-Oct-12 03:00N 37°56' W 008°51'0 0.9
2017-Oct-12 02:29N 37°56' W 008°51'0 0.0
2017-Oct-12 01:59N 37°56' W 008°51'2 3.7
2017-Oct-12 01:31N 37°55' W 008°50'2 3.0
2017-Oct-12 00:59N 37°56' W 008°51'0 0.6
2017-Oct-12 00:28N 37°56' W 008°51'0 0.0
2017-Oct-11 23:55N 37°56' W 008°51'0 0.1
2017-Oct-11 18:10N 37°56' W 008°51'211.7
2017-Oct-11 18:00N 37°54' W 008°51'1 3.0
2017-Oct-11 17:30N 37°56' W 008°51'0 0.1
2017-Oct-11 17:00N 37°56' W 008°51'1 0.1
2017-Oct-10 22:46N 37°57' W 008°52'2 6.3
2017-Oct-10 22:30N 37°56' W 008°53'2 0.8
2017-Oct-10 20:19N 37°56' W 008°51'0 0.7
2017-Oct-10 20:00N 37°56' W 008°51'0 0.1
2017-Oct-10 17:30N 37°56' W 008°51'0 0.7
2017-Oct-10 17:00N 37°56' W 008°51'0 0.1
2017-Oct-10 16:29N 37°56' W 008°51'1 0.5
2017-Oct-10 15:18N 37°57' W 008°52'1 3.5
2017-Oct-10 15:00N 37°56' W 008°51'1 1.3
2017-Oct-10 14:00N 37°56' W 008°53'1 2.4
2017-Oct-10 13:28N 37°56' W 008°51'0 0.0
2017-Oct-10 13:00N 37°56' W 008°51'0 0.6
2017-Oct-10 12:30N 37°56' W 008°51'0 0.3
2017-Oct-10 11:26N 37°56' W 008°51'0 0.6
2017-Oct-10 11:00N 37°56' W 008°51'0 0.0
2017-Oct-10 01:37N 37°56' W 008°51'1 5.6
2017-Oct-10 01:30N 37°56' W 008°51'1 1.3
2017-Oct-10 01:00N 37°56' W 008°51'0 0.0
2017-Oct-10 00:30N 37°56' W 008°51'0 0.8
2017-Oct-09 23:58N 37°56' W 008°51'1 2.5
2017-Oct-09 23:30N 37°56' W 008°52'0 0.3
2017-Oct-09 21:54N 37°57' W 008°52'1 2.5
2017-Oct-09 21:28N 37°57' W 008°53'2 3.7
2017-Oct-09 21:00N 37°56' W 008°51'0 0.0
2017-Oct-09 16:54N 37°56' W 008°51'0 0.8
2017-Oct-09 16:30N 37°56' W 008°51'1 1.0
2017-Oct-09 16:00N 37°56' W 008°51'1 1.8
2017-Oct-09 15:30N 37°55' W 008°51'0 0.7
2017-Oct-09 15:00N 37°56' W 008°51'1 1.3
2017-Oct-09 14:29N 37°56' W 008°51'2 3.6
2017-Oct-09 14:00N 37°55' W 008°52'2 4.0
2017-Oct-09 13:30N 37°57' W 008°52'0 0.9
2017-Oct-09 12:59N 37°57' W 008°52'2 4.9
2017-Oct-09 12:30N 37°55' W 008°51'3 5.2
2017-Oct-09 12:00N 37°57' W 008°53'2 0.3
2017-Oct-09 04:48N 37°56' W 008°51'0 1.2
2017-Oct-09 04:28N 37°56' W 008°51'0 0.1
2017-Oct-09 04:00N 37°56' W 008°51'1 2.4
2017-Oct-09 03:29N 37°57' W 008°52'0 0.0
2017-Oct-09 03:00N 37°57' W 008°52'1 2.0
2017-Oct-09 02:30N 37°56' W 008°52'1 0.1
2017-Oct-08 21:46N 37°56' W 008°51'0 0.7
2017-Oct-08 21:30N 37°56' W 008°51'0 0.4
2017-Oct-08 21:00N 37°56' W 008°51'0 0.0
2017-Oct-08 18:07N 37°56' W 008°51'112.1
2017-Oct-08 18:00N 37°55' W 008°51'2 3.2
2017-Oct-08 17:30N 37°56' W 008°53'1 2.5
2017-Oct-08 17:00N 37°57' W 008°53'1 2.3
2017-Oct-08 16:28N 37°57' W 008°52'1 2.6
2017-Oct-08 15:59N 37°56' W 008°51'0 0.6
2017-Oct-08 15:19N 37°56' W 008°51'3 8.1
2017-Oct-08 15:00N 37°54' W 008°51'  

Dump ship's entire track history